Asahi — JD2498 — position and weather

sailwx.info

Track history (hours):
 
Tides and Currents Weather Stations Pressure Air Temp Water Temp Dewpoint Dewpoint Depression Visibility Wind Speed Wind Dir Waves Ship Positions

Asahi

Last reported at 2018-Jun-24 23:32 UTC. Time now 2018-Jun-25 09:30 UTC.
Position N 35°38' E 139°46'.

Length 37 m; draft 3.7 m.

Type: Tug. MMSI: 431000377.

Date/timePositionNaut miles runAvg speedWind from/ knotsBaromVisibWave heightAir tempDewpointWater temp
2018-Jun-24 23:32N 35°38' E 139°46'1 3.5
2018-Jun-24 23:18N 35°37' E 139°46'0 0.4
2018-Jun-24 22:53N 35°37' E 139°46'2 5.3
2018-Jun-24 22:29N 35°36' E 139°47'0 0.3
2018-Jun-24 20:38N 35°35' E 139°47'1 8.4
2018-Jun-24 20:30N 35°37' E 139°47'2 2.7
2018-Jun-24 19:56N 35°38' E 139°46'1 0.0
2018-Jun-23 23:54N 35°38' E 139°46'2 4.7
2018-Jun-23 23:28N 35°37' E 139°47'0 0.7
2018-Jun-23 22:59N 35°36' E 139°47'2 4.0
2018-Jun-23 22:30N 35°35' E 139°48'3 5.2
2018-Jun-23 22:00N 35°33' E 139°51'1 1.7
2018-Jun-23 21:30N 35°34' E 139°50'4 3.1
2018-Jun-23 20:11N 35°36' E 139°46'2 0.1
2018-Jun-22 22:44N 35°38' E 139°46'2 3.8
2018-Jun-22 22:15N 35°37' E 139°46'1 2.4
2018-Jun-22 21:59N 35°36' E 139°46'2 0.1
2018-Jun-22 03:07N 35°39' E 139°46'210.8
2018-Jun-22 02:58N 35°37' E 139°46'2 3.8
2018-Jun-22 02:25N 35°35' E 139°47'1 2.2
2018-Jun-22 01:52N 35°34' E 139°48'3 7.8
2018-Jun-22 01:28N 35°37' E 139°46'2 0.1
2018-Jun-21 13:45N 35°38' E 139°46'0 0.1
2018-Jun-21 10:20N 35°38' E 139°46'2 3.3
2018-Jun-21 09:41N 35°36' E 139°48'1 4.3
2018-Jun-21 09:30N 35°37' E 139°47'0 0.2
2018-Jun-21 08:56N 35°37' E 139°47'2 0.2
2018-Jun-20 23:42N 35°38' E 139°46'1 7.1
2018-Jun-20 23:30N 35°37' E 139°46'2 4.0
2018-Jun-20 23:00N 35°35' E 139°48'1 1.7
2018-Jun-20 22:30N 35°35' E 139°48'3 4.6
2018-Jun-20 21:56N 35°37' E 139°46'2 0.2
2018-Jun-20 09:05N 35°39' E 139°46'211.4
2018-Jun-20 08:57N 35°37' E 139°46'1 2.0
2018-Jun-20 08:26N 35°36' E 139°47'1 0.1
2018-Jun-19 22:43N 35°37' E 139°46'2 2.6
2018-Jun-19 21:48N 35°35' E 139°47'1 1.6
2018-Jun-19 21:25N 35°35' E 139°47'0 0.0
2018-Jun-19 21:00N 35°35' E 139°47'0 0.0
2018-Jun-19 20:29N 35°35' E 139°47'1 2.0
2018-Jun-19 19:59N 35°36' E 139°46'1 1.3
2018-Jun-19 19:27N 35°37' E 139°46'2 0.1
2018-Jun-19 00:16N 35°39' E 139°47'1 2.0
2018-Jun-18 23:52N 35°38' E 139°46'0 0.0
2018-Jun-18 12:02N 35°38' E 139°46'112.2
2018-Jun-18 11:59N 35°38' E 139°46'2 1.9
2018-Jun-18 11:10N 35°36' E 139°46'2 1.5
2018-Jun-18 10:05N 35°38' E 139°46'112.6
2018-Jun-18 10:00N 35°37' E 139°46'1 0.9
2018-Jun-18 09:17N 35°36' E 139°46'2 4.2
2018-Jun-18 08:56N 35°35' E 139°47'2 5.1
2018-Jun-18 08:30N 35°34' E 139°49'5 0.6
2018-Jun-18 00:01N 35°38' E 139°46'011.6
2018-Jun-17 23:59N 35°38' E 139°46'2 2.2
2018-Jun-17 22:59N 35°36' E 139°47'1 2.2
2018-Jun-17 22:30N 35°35' E 139°48'3 6.5
2018-Jun-17 22:00N 35°33' E 139°51'1 2.0
2018-Jun-17 21:28N 35°34' E 139°52'5 9.4
2018-Jun-17 20:59N 35°35' E 139°47'1 1.2
2018-Jun-17 19:58N 35°36' E 139°46'2 0.1
2018-Jun-16 23:22N 35°39' E 139°46'2 5.4
2018-Jun-16 23:00N 35°37' E 139°46'1 1.4
2018-Jun-16 22:24N 35°36' E 139°47'1 2.0
2018-Jun-16 22:00N 35°36' E 139°47'2 4.5
2018-Jun-16 21:30N 35°34' E 139°49'1 2.7
2018-Jun-16 21:00N 35°35' E 139°48'2 1.9
2018-Jun-16 20:04N 35°36' E 139°46'111.5
2018-Jun-16 19:59N 35°37' E 139°46'1 0.1
2018-Jun-16 11:10N 35°38' E 139°45'211.0
2018-Jun-16 11:00N 35°36' E 139°46'0 0.4
2018-Jun-16 10:23N 35°36' E 139°46'1 3.3
2018-Jun-16 09:58N 35°35' E 139°47'2 3.2
2018-Jun-16 09:19N 35°34' E 139°49'2 5.9
2018-Jun-16 09:00N 35°35' E 139°47'1 1.1
2018-Jun-16 08:21N 35°35' E 139°47'1 1.3
2018-Jun-16 07:24N 35°37' E 139°47'2 3.7
2018-Jun-16 06:56N 35°38' E 139°45'0 0.3
2018-Jun-16 06:30N 35°38' E 139°46'3 4.6
2018-Jun-16 05:55N 35°36' E 139°48'0 0.1
2018-Jun-16 05:29N 35°36' E 139°48'0 0.0
2018-Jun-16 04:45N 35°36' E 139°48'0 0.0
2018-Jun-16 04:29N 35°36' E 139°48'0 0.0
2018-Jun-16 03:56N 35°36' E 139°48'0 0.0
2018-Jun-16 03:30N 35°36' E 139°48'2 3.4
2018-Jun-16 02:56N 35°37' E 139°46'1 1.4
2018-Jun-16 02:29N 35°37' E 139°46'2 3.8
2018-Jun-16 01:59N 35°35' E 139°48'2 4.2
2018-Jun-16 01:28N 35°37' E 139°46'2 0.1
2018-Jun-15 11:43N 35°38' E 139°46'1 6.2
2018-Jun-15 11:29N 35°37' E 139°46'4 1.5
2018-Jun-15 08:55N 35°34' E 139°49'2 5.7
2018-Jun-15 08:29N 35°35' E 139°47'0 0.0
2018-Jun-15 08:00N 35°35' E 139°47'0 0.0
2018-Jun-15 07:30N 35°35' E 139°47'2 2.9
2018-Jun-15 06:54N 35°37' E 139°46'  
Track history (hours):
 
Tides and Currents Weather Stations Pressure Air Temp Water Temp Dewpoint Dewpoint Depression Visibility Wind Speed Wind Dir Waves Ship Positions

Asahi

Last reported at 2018-Jun-24 23:32 UTC. Time now 2018-Jun-25 09:30 UTC.
Position N 35°38' E 139°46'.

Length 37 m; draft 3.7 m.

Type: Tug. MMSI: 431000377.

Date/timePositionNaut miles runAvg speedWind from/ knotsBaromVisibWave heightAir tempDewpointWater temp
2018-Jun-24 23:32N 35°38' E 139°46'1 3.5
2018-Jun-24 23:18N 35°37' E 139°46'0 0.4
2018-Jun-24 22:53N 35°37' E 139°46'2 5.3
2018-Jun-24 22:29N 35°36' E 139°47'0 0.3
2018-Jun-24 20:38N 35°35' E 139°47'1 8.4
2018-Jun-24 20:30N 35°37' E 139°47'2 2.7
2018-Jun-24 19:56N 35°38' E 139°46'1 0.0
2018-Jun-23 23:54N 35°38' E 139°46'2 4.7
2018-Jun-23 23:28N 35°37' E 139°47'0 0.7
2018-Jun-23 22:59N 35°36' E 139°47'2 4.0
2018-Jun-23 22:30N 35°35' E 139°48'3 5.2
2018-Jun-23 22:00N 35°33' E 139°51'1 1.7
2018-Jun-23 21:30N 35°34' E 139°50'4 3.1
2018-Jun-23 20:11N 35°36' E 139°46'2 0.1
2018-Jun-22 22:44N 35°38' E 139°46'2 3.8
2018-Jun-22 22:15N 35°37' E 139°46'1 2.4
2018-Jun-22 21:59N 35°36' E 139°46'2 0.1
2018-Jun-22 03:07N 35°39' E 139°46'210.8
2018-Jun-22 02:58N 35°37' E 139°46'2 3.8
2018-Jun-22 02:25N 35°35' E 139°47'1 2.2
2018-Jun-22 01:52N 35°34' E 139°48'3 7.8
2018-Jun-22 01:28N 35°37' E 139°46'2 0.1
2018-Jun-21 13:45N 35°38' E 139°46'0 0.1
2018-Jun-21 10:20N 35°38' E 139°46'2 3.3
2018-Jun-21 09:41N 35°36' E 139°48'1 4.3
2018-Jun-21 09:30N 35°37' E 139°47'0 0.2
2018-Jun-21 08:56N 35°37' E 139°47'2 0.2
2018-Jun-20 23:42N 35°38' E 139°46'1 7.1
2018-Jun-20 23:30N 35°37' E 139°46'2 4.0
2018-Jun-20 23:00N 35°35' E 139°48'1 1.7
2018-Jun-20 22:30N 35°35' E 139°48'3 4.6
2018-Jun-20 21:56N 35°37' E 139°46'2 0.2
2018-Jun-20 09:05N 35°39' E 139°46'211.4
2018-Jun-20 08:57N 35°37' E 139°46'1 2.0
2018-Jun-20 08:26N 35°36' E 139°47'1 0.1
2018-Jun-19 22:43N 35°37' E 139°46'2 2.6
2018-Jun-19 21:48N 35°35' E 139°47'1 1.6
2018-Jun-19 21:25N 35°35' E 139°47'0 0.0
2018-Jun-19 21:00N 35°35' E 139°47'0 0.0
2018-Jun-19 20:29N 35°35' E 139°47'1 2.0
2018-Jun-19 19:59N 35°36' E 139°46'1 1.3
2018-Jun-19 19:27N 35°37' E 139°46'2 0.1
2018-Jun-19 00:16N 35°39' E 139°47'1 2.0
2018-Jun-18 23:52N 35°38' E 139°46'0 0.0
2018-Jun-18 12:02N 35°38' E 139°46'112.2
2018-Jun-18 11:59N 35°38' E 139°46'2 1.9
2018-Jun-18 11:10N 35°36' E 139°46'2 1.5
2018-Jun-18 10:05N 35°38' E 139°46'112.6
2018-Jun-18 10:00N 35°37' E 139°46'1 0.9
2018-Jun-18 09:17N 35°36' E 139°46'2 4.2
2018-Jun-18 08:56N 35°35' E 139°47'2 5.1
2018-Jun-18 08:30N 35°34' E 139°49'5 0.6
2018-Jun-18 00:01N 35°38' E 139°46'011.6
2018-Jun-17 23:59N 35°38' E 139°46'2 2.2
2018-Jun-17 22:59N 35°36' E 139°47'1 2.2
2018-Jun-17 22:30N 35°35' E 139°48'3 6.5
2018-Jun-17 22:00N 35°33' E 139°51'1 2.0
2018-Jun-17 21:28N 35°34' E 139°52'5 9.4
2018-Jun-17 20:59N 35°35' E 139°47'1 1.2
2018-Jun-17 19:58N 35°36' E 139°46'2 0.1
2018-Jun-16 23:22N 35°39' E 139°46'2 5.4
2018-Jun-16 23:00N 35°37' E 139°46'1 1.4
2018-Jun-16 22:24N 35°36' E 139°47'1 2.0
2018-Jun-16 22:00N 35°36' E 139°47'2 4.5
2018-Jun-16 21:30N 35°34' E 139°49'1 2.7
2018-Jun-16 21:00N 35°35' E 139°48'2 1.9
2018-Jun-16 20:04N 35°36' E 139°46'111.5
2018-Jun-16 19:59N 35°37' E 139°46'1 0.1
2018-Jun-16 11:10N 35°38' E 139°45'211.0
2018-Jun-16 11:00N 35°36' E 139°46'0 0.4
2018-Jun-16 10:23N 35°36' E 139°46'1 3.3
2018-Jun-16 09:58N 35°35' E 139°47'2 3.2
2018-Jun-16 09:19N 35°34' E 139°49'2 5.9
2018-Jun-16 09:00N 35°35' E 139°47'1 1.1
2018-Jun-16 08:21N 35°35' E 139°47'1 1.3
2018-Jun-16 07:24N 35°37' E 139°47'2 3.7
2018-Jun-16 06:56N 35°38' E 139°45'0 0.3
2018-Jun-16 06:30N 35°38' E 139°46'3 4.6
2018-Jun-16 05:55N 35°36' E 139°48'0 0.1
2018-Jun-16 05:29N 35°36' E 139°48'0 0.0
2018-Jun-16 04:45N 35°36' E 139°48'0 0.0
2018-Jun-16 04:29N 35°36' E 139°48'0 0.0
2018-Jun-16 03:56N 35°36' E 139°48'0 0.0
2018-Jun-16 03:30N 35°36' E 139°48'2 3.4
2018-Jun-16 02:56N 35°37' E 139°46'1 1.4
2018-Jun-16 02:29N 35°37' E 139°46'2 3.8
2018-Jun-16 01:59N 35°35' E 139°48'2 4.2
2018-Jun-16 01:28N 35°37' E 139°46'2 0.1
2018-Jun-15 11:43N 35°38' E 139°46'1 6.2
2018-Jun-15 11:29N 35°37' E 139°46'4 1.5
2018-Jun-15 08:55N 35°34' E 139°49'2 5.7
2018-Jun-15 08:29N 35°35' E 139°47'0 0.0
2018-Jun-15 08:00N 35°35' E 139°47'0 0.0
2018-Jun-15 07:30N 35°35' E 139°47'2 2.9
2018-Jun-15 06:54N 35°37' E 139°46'  

Dump ship's entire track history